首页
METAR-TAF:

METAR-TAF

机场 :

巴黎夏尔·戴高乐机场

巴黎戴高乐, 法国

纬度: 49-01N, 经度: 002-32E, 海拔: 118米

当前天气观测

该预报发布于23分钟前的16:30 UTC
风速4节,风向北转东北,在之间变化
温度 0°C
湿度 93%
气压 1022 hPa
能見度: 2400
少量云层高于200英尺
多云层高于400英尺
轻雾

METAR: LFPG 241630Z 03004KT 360V080 2400 BR FEW002 BKN004 00/M01 Q1022 NOSIG

时间: 17:53 (16:53 UTC)

预报

该预报发布于2小时和17分钟前的14:36 UTC
预报有效从24日的 14点(UTC)到 25日的 18点(UTC)
风速3节,风向多变
能見度: 2000
多云层高于400英尺
轻雾
几率 30% :
短暂存在
从 24日的 14点(UTC)到 24日的 17点(UTC)
能見度: 6000
成为
从 25日的 00点(UTC)到 25日的 02点(UTC)
能見度: 1200
多云层高于200英尺
轻雾
短暂存在
从 25日的 02点(UTC)到 25日的 12点(UTC)
能見度: 0500
成为
从 25日的 12点(UTC)到 25日的 14点(UTC)
能見度: 6000
多云层高于500英尺

TAF: LFPG 241436Z 2414/2518 VRB03KT 2000 BR BKN004 TX05/2512Z TN00/2414Z PROB30 TEMPO 2414/2417 6000 NSW NSC BECMG 2500/2502 1200 BR BKN002 TEMPO 2502/2512 0500 FG VV/// BECMG 2512/2514 6000 NSW BKN005

超过4000个机场的气象观测和天气预报(METAR&TAF报告)。

可查询的气象台以黄色和红色小点在地图上表示。

将鼠标移到小点上方,可查看气象台名称。

然后点击查看天气观测和预报。

如需切换地图:点击带黑十字的绿色按钮放大地图;点击带横线的绿色按钮缩小地图;或者点击绿色箭头查看邻近地区的地图。


METAR-TAF: